createdAt,value
2018-10-21T00:00:15.865Z,0
2018-10-21T00:01:16.536Z,0
2018-10-21T00:02:17.277Z,0
2018-10-21T00:03:18.011Z,0
2018-10-21T00:04:18.614Z,0
2018-10-21T00:05:19.285Z,0
2018-10-21T00:06:19.950Z,0
2018-10-21T00:07:20.622Z,0
2018-10-21T00:08:21.290Z,0
2018-10-21T00:09:21.959Z,0
2018-10-21T00:10:22.627Z,0
2018-10-21T00:11:23.295Z,0
2018-10-21T00:12:23.967Z,0
2018-10-21T00:13:24.634Z,0
2018-10-21T00:14:25.302Z,0
2018-10-21T00:15:26.093Z,0
2018-10-21T00:16:26.637Z,0
2018-10-21T00:17:27.311Z,0
2018-10-21T00:18:27.975Z,0
2018-10-21T00:19:28.644Z,0
2018-10-21T00:20:29.314Z,0
2018-10-21T00:21:29.978Z,0
2018-10-21T00:22:30.648Z,0
2018-10-21T00:23:31.320Z,0
2018-10-21T00:24:31.986Z,0
2018-10-21T00:25:32.651Z,0
2018-10-21T00:26:33.322Z,0
2018-10-21T00:27:34.029Z,0
2018-10-21T00:28:34.701Z,0
2018-10-21T00:29:35.379Z,0
2018-10-21T00:30:36.038Z,0
2018-10-21T00:31:36.751Z,0
2018-10-21T00:32:37.464Z,0
2018-10-21T00:33:38.137Z,0
2018-10-21T00:34:38.801Z,0
2018-10-21T00:35:39.469Z,0
2018-10-21T00:36:40.139Z,0
2018-10-21T00:37:40.808Z,0
2018-10-21T00:38:41.477Z,0
2018-10-21T00:39:42.145Z,0
2018-10-21T00:40:42.811Z,0
2018-10-21T00:41:43.481Z,0
2018-10-21T00:42:44.150Z,0
2018-10-21T00:43:44.818Z,0
2018-10-21T00:44:45.530Z,0
2018-10-21T00:45:46.197Z,0
2018-10-21T00:46:46.871Z,0
2018-10-21T00:47:47.579Z,0
2018-10-21T00:48:48.248Z,0
2018-10-21T00:49:48.915Z,0
2018-10-21T00:50:49.583Z,0
2018-10-21T00:51:50.296Z,0
2018-10-21T00:52:50.972Z,0
2018-10-21T00:53:51.633Z,0
2018-10-21T00:54:52.301Z,0
2018-10-21T00:55:52.969Z,0
2018-10-21T00:56:53.646Z,0
2018-10-21T00:57:54.307Z,0
2018-10-21T00:58:54.976Z,0
2018-10-21T00:59:55.644Z,0
2018-10-21T01:00:56.315Z,0
2018-10-21T01:01:57.026Z,0
2018-10-21T01:02:57.748Z,0
2018-10-21T01:03:58.451Z,0
2018-10-21T01:04:59.066Z,0
2018-10-21T01:05:59.733Z,0
2018-10-21T01:07:00.403Z,0
2018-10-21T01:08:01.071Z,0
2018-10-21T01:09:01.754Z,0
2018-10-21T01:10:02.408Z,0
2018-10-21T01:11:03.075Z,0
2018-10-21T01:12:03.747Z,0
2018-10-21T01:13:04.411Z,0
2018-10-21T01:14:05.082Z,0
2018-10-21T01:15:05.762Z,0
2018-10-21T01:16:06.454Z,0
2018-10-21T01:17:07.120Z,0
2018-10-21T01:18:07.790Z,0
2018-10-21T01:19:08.461Z,0
2018-10-21T01:20:09.127Z,0
2018-10-21T01:21:09.864Z,0
2018-10-21T01:22:10.464Z,0
2018-10-21T01:23:11.134Z,0
2018-10-21T01:24:11.802Z,0
2018-10-21T01:25:12.471Z,0
2018-10-21T01:26:13.138Z,0
2018-10-21T01:27:13.830Z,0
2018-10-21T01:28:14.474Z,0
2018-10-21T01:29:15.145Z,0
2018-10-21T01:30:15.812Z,0
2018-10-21T01:31:16.480Z,0
2018-10-21T01:32:17.151Z,0
2018-10-21T01:33:17.819Z,0
2018-10-21T01:34:18.488Z,0
2018-10-21T01:35:19.165Z,0
2018-10-21T01:36:20.251Z,0
2018-10-21T01:37:20.576Z,0
2018-10-21T01:38:21.260Z,0
2018-10-21T01:39:21.910Z,0
2018-10-21T01:40:22.582Z,0
2018-10-21T01:41:23.254Z,0
2018-10-21T01:42:23.914Z,0
2018-10-21T01:43:24.582Z,0
2018-10-21T01:44:25.250Z,0
2018-10-21T01:45:25.917Z,0
2018-10-21T01:46:26.585Z,0
2018-10-21T01:47:27.253Z,0
2018-10-21T01:48:27.923Z,0
2018-10-21T01:49:28.593Z,0
2018-10-21T01:50:29.260Z,0
2018-10-21T01:51:29.927Z,0
2018-10-21T01:52:30.646Z,0
2018-10-21T01:53:31.267Z,0
2018-10-21T01:54:31.935Z,0
2018-10-21T01:55:32.602Z,0
2018-10-21T01:56:33.271Z,0
2018-10-21T01:57:33.937Z,0
2018-10-21T01:58:34.613Z,0
2018-10-21T01:59:35.276Z,0
2018-10-21T02:00:35.944Z,0
2018-10-21T02:01:36.613Z,0
2018-10-21T02:02:37.281Z,0
2018-10-21T02:03:37.950Z,0
2018-10-21T02:04:38.618Z,0
2018-10-21T02:05:39.289Z,0
2018-10-21T02:06:39.999Z,0
2018-10-21T02:07:40.669Z,0
2018-10-21T02:08:41.338Z,0
2018-10-21T02:09:42.007Z,0
2018-10-21T02:10:42.675Z,0
2018-10-21T02:11:43.354Z,0
2018-10-21T02:12:44.059Z,0
2018-10-21T02:13:44.725Z,0
2018-10-21T02:14:45.394Z,0
2018-10-21T02:15:46.064Z,0
2018-10-21T02:16:46.730Z,0
2018-10-21T02:17:47.400Z,0
2018-10-21T02:18:48.067Z,0
2018-10-21T02:19:48.736Z,0
2018-10-21T02:20:49.404Z,0
2018-10-21T02:21:50.072Z,0
2018-10-21T02:22:50.740Z,0
2018-10-21T02:23:51.409Z,0
2018-10-21T02:24:52.078Z,0
2018-10-21T02:25:52.746Z,0
2018-10-21T02:26:53.467Z,0
2018-10-21T02:27:54.084Z,0
2018-10-21T02:28:54.756Z,0
2018-10-21T02:29:55.422Z,0
2018-10-21T02:30:56.090Z,0
2018-10-21T02:31:56.802Z,0
2018-10-21T02:32:57.510Z,0
2018-10-21T02:33:58.145Z,0
2018-10-21T02:34:58.808Z,0
2018-10-21T02:35:59.480Z,0
2018-10-21T02:37:00.144Z,0
2018-10-21T02:38:00.813Z,0
2018-10-21T02:39:01.489Z,0
2018-10-21T02:40:02.188Z,0
2018-10-21T02:41:02.855Z,0
2018-10-21T02:42:03.526Z,0
2018-10-21T02:43:04.193Z,0
2018-10-21T02:44:04.860Z,0
2018-10-21T02:45:05.584Z,0
2018-10-21T02:46:06.199Z,0
2018-10-21T02:47:06.867Z,0
2018-10-21T02:48:07.534Z,0
2018-10-21T02:49:08.203Z,0
2018-10-21T02:50:08.872Z,0
2018-10-21T02:51:09.569Z,0
2018-10-21T02:52:10.208Z,0
2018-10-21T02:53:10.884Z,0
2018-10-21T02:54:11.590Z,0
2018-10-21T02:55:12.258Z,0
2018-10-21T02:56:12.926Z,0
2018-10-21T02:57:13.665Z,0
2018-10-21T02:58:14.299Z,0
2018-10-21T02:59:14.972Z,0
2018-10-21T03:00:15.683Z,0
2018-10-21T03:01:16.358Z,0
2018-10-21T03:02:17.069Z,0
2018-10-21T03:03:17.803Z,0
2018-10-21T03:04:18.402Z,0
2018-10-21T03:05:19.071Z,0
2018-10-21T03:06:19.737Z,0
2018-10-21T03:07:20.404Z,0
2018-10-21T03:08:21.076Z,0
2018-10-21T03:09:21.785Z,0
2018-10-21T03:10:22.411Z,0
2018-10-21T03:11:23.083Z,0
2018-10-21T03:12:23.750Z,0
2018-10-21T03:13:24.418Z,0
2018-10-21T03:14:25.131Z,0
2018-10-21T03:15:25.843Z,0
2018-10-21T03:16:26.512Z,0
2018-10-21T03:17:27.180Z,0
2018-10-21T03:18:27.944Z,0
2018-10-21T03:19:28.519Z,0
2018-10-21T03:20:29.184Z,0
2018-10-21T03:21:29.852Z,0
2018-10-21T03:22:30.532Z,0
2018-10-21T03:23:31.193Z,0
2018-10-21T03:24:31.857Z,0
2018-10-21T03:25:32.525Z,0
2018-10-21T03:26:33.191Z,0
2018-10-21T03:27:33.869Z,0
2018-10-21T03:28:34.527Z,0
2018-10-21T03:29:35.197Z,0
2018-10-21T03:30:35.870Z,0
2018-10-21T03:31:36.533Z,0
2018-10-21T03:32:37.203Z,0
2018-10-21T03:33:37.925Z,0
2018-10-21T03:34:38.575Z,0
2018-10-21T03:35:39.244Z,0
2018-10-21T03:36:40.258Z,0
2018-10-21T03:37:40.863Z,0
2018-10-21T03:38:41.530Z,0
2018-10-21T03:39:42.199Z,0
2018-10-21T03:40:42.867Z,0
2018-10-21T03:41:43.537Z,0
2018-10-21T03:42:44.204Z,0
2018-10-21T03:43:44.872Z,0
2018-10-21T03:44:45.541Z,0
2018-10-21T03:45:46.208Z,0
2018-10-21T03:46:46.878Z,0
2018-10-21T03:47:47.594Z,0
2018-10-21T03:48:48.264Z,0
2018-10-21T03:49:48.932Z,0
2018-10-21T03:50:49.605Z,0
2018-10-21T03:51:50.267Z,0
2018-10-21T03:52:50.936Z,0
2018-10-21T03:53:51.612Z,0
2018-10-21T03:54:52.270Z,0
2018-10-21T03:55:52.938Z,0
2018-10-21T03:56:53.650Z,0
2018-10-21T03:57:54.331Z,0
2018-10-21T03:58:54.986Z,0
2018-10-21T03:59:55.653Z,0
2018-10-21T04:00:56.331Z,0
2018-10-21T04:01:56.988Z,0
2018-10-21T04:02:57.657Z,0
2018-10-21T04:03:58.329Z,0
2018-10-21T04:04:58.992Z,0
2018-10-21T04:05:59.662Z,0
2018-10-21T04:07:00.328Z,0
2018-10-21T04:08:00.996Z,0
2018-10-21T04:09:01.666Z,0
2018-10-21T04:10:02.337Z,0
2018-10-21T04:11:03.001Z,0
2018-10-21T04:12:03.668Z,0
2018-10-21T04:13:04.339Z,0
2018-10-21T04:14:05.051Z,0
2018-10-21T04:15:05.718Z,0
2018-10-21T04:16:06.405Z,0
2018-10-21T04:17:07.088Z,0
2018-10-21T04:18:07.755Z,0
2018-10-21T04:19:08.424Z,0
2018-10-21T04:20:09.092Z,0
2018-10-21T04:21:09.760Z,0
2018-10-21T04:22:10.512Z,0
2018-10-21T04:23:11.102Z,0
2018-10-21T04:24:11.765Z,0
2018-10-21T04:25:12.433Z,0
2018-10-21T04:26:13.101Z,0
2018-10-21T04:27:13.772Z,0
2018-10-21T04:28:14.492Z,0
2018-10-21T04:29:15.107Z,0
2018-10-21T04:30:15.778Z,0
2018-10-21T04:31:16.486Z,0
2018-10-21T04:32:17.154Z,0
2018-10-21T04:33:17.873Z,0
2018-10-21T04:34:18.580Z,0
2018-10-21T04:35:19.284Z,0
2018-10-21T04:36:19.915Z,0
2018-10-21T04:37:20.585Z,0
2018-10-21T04:38:21.295Z,0
2018-10-21T04:39:21.971Z,0
2018-10-21T04:40:22.631Z,0
2018-10-21T04:41:23.298Z,0
2018-10-21T04:42:23.967Z,0
2018-10-21T04:43:24.632Z,0
2018-10-21T04:44:25.301Z,0
2018-10-21T04:45:25.971Z,0
2018-10-21T04:46:26.705Z,0
2018-10-21T04:47:27.382Z,0
2018-10-21T04:48:28.052Z,0
2018-10-21T04:49:28.762Z,0
2018-10-21T04:50:29.430Z,0
2018-10-21T04:51:30.098Z,0
2018-10-21T04:52:30.766Z,0
2018-10-21T04:53:31.435Z,0
2018-10-21T04:54:32.102Z,0
2018-10-21T04:55:32.824Z,0
2018-10-21T04:56:33.483Z,0
2018-10-21T04:57:34.198Z,0
2018-10-21T04:58:34.864Z,0
2018-10-21T04:59:35.531Z,0
2018-10-21T05:00:36.240Z,0
2018-10-21T05:01:36.874Z,0
2018-10-21T05:02:37.535Z,0
2018-10-21T05:03:38.201Z,0
2018-10-21T05:04:38.888Z,0
2018-10-21T05:05:39.540Z,0
2018-10-21T05:06:40.205Z,0
2018-10-21T05:07:40.908Z,0
2018-10-21T05:08:41.543Z,0
2018-10-21T05:09:42.211Z,0
2018-10-21T05:10:42.875Z,0
2018-10-21T05:11:43.542Z,0
2018-10-21T05:12:44.212Z,0
2018-10-21T05:13:44.878Z,0
2018-10-21T05:14:45.547Z,0
2018-10-21T05:15:46.214Z,0
2018-10-21T05:16:46.882Z,0
2018-10-21T05:17:47.548Z,4
2018-10-21T05:18:48.216Z,4
2018-10-21T05:19:48.885Z,0
2018-10-21T05:20:49.600Z,4
2018-10-21T05:21:50.265Z,4
2018-10-21T05:22:50.935Z,4
2018-10-21T05:23:51.667Z,4
2018-10-21T05:24:52.274Z,8
2018-10-21T05:25:52.938Z,8
2018-10-21T05:26:53.607Z,12
2018-10-21T05:27:54.280Z,8
2018-10-21T05:28:54.952Z,12
2018-10-21T05:29:55.660Z,16
2018-10-21T05:30:56.328Z,16
2018-10-21T05:31:57.008Z,24
2018-10-21T05:32:57.669Z,24
2018-10-21T05:33:58.397Z,24
2018-10-21T05:34:59.084Z,32
2018-10-21T05:35:59.752Z,36
2018-10-21T05:37:00.421Z,40
2018-10-21T05:38:01.182Z,44
2018-10-21T05:39:01.758Z,48
2018-10-21T05:40:02.437Z,52
2018-10-21T05:41:03.097Z,60
2018-10-21T05:42:03.766Z,64
2018-10-21T05:43:04.437Z,72
2018-10-21T05:44:05.105Z,84
2018-10-21T05:45:05.772Z,92
2018-10-21T05:46:06.502Z,104
2018-10-21T05:47:07.174Z,116
2018-10-21T05:48:07.783Z,128
2018-10-21T05:49:08.453Z,140
2018-10-21T05:50:09.124Z,152
2018-10-21T05:51:09.794Z,164
2018-10-21T05:52:10.497Z,176
2018-10-21T05:53:11.134Z,188
2018-10-21T05:54:11.806Z,200
2018-10-21T05:55:12.476Z,212
2018-10-21T05:56:13.145Z,224
2018-10-21T05:57:13.814Z,240
2018-10-21T05:58:14.542Z,256
2018-10-21T05:59:15.157Z,276
2018-10-21T06:00:15.825Z,296
2018-10-21T06:01:16.497Z,312
2018-10-21T06:02:17.169Z,336
2018-10-21T06:03:17.851Z,360
2018-10-21T06:04:18.632Z,384
2018-10-21T06:05:19.228Z,420
2018-10-21T06:06:19.906Z,456
2018-10-21T06:07:20.614Z,512
2018-10-21T06:08:21.294Z,580
2018-10-21T06:09:22.000Z,652
2018-10-21T06:10:22.672Z,720
2018-10-21T06:11:23.343Z,788
2018-10-21T06:12:24.015Z,836
2018-10-21T06:13:24.686Z,848
2018-10-21T06:14:25.361Z,872
2018-10-21T06:15:26.027Z,904
2018-10-21T06:16:26.699Z,924
2018-10-21T06:17:27.369Z,920
2018-10-21T06:18:28.039Z,900
2018-10-21T06:19:28.712Z,892
2018-10-21T06:20:29.382Z,896
2018-10-21T06:21:30.055Z,924
2018-10-21T06:22:30.725Z,968
2018-10-21T06:23:31.414Z,1036
2018-10-21T06:24:32.072Z,1124
2018-10-21T06:25:32.743Z,1224
2018-10-21T06:26:33.417Z,1316
2018-10-21T06:27:34.094Z,1364
2018-10-21T06:28:34.761Z,1396
2018-10-21T06:29:35.434Z,1452
2018-10-21T06:30:36.107Z,1488
2018-10-21T06:31:36.793Z,1496
2018-10-21T06:32:37.545Z,1484
2018-10-21T06:33:38.264Z,1432
2018-10-21T06:34:38.889Z,1356
2018-10-21T06:35:39.563Z,1268
2018-10-21T06:36:40.277Z,1220
2018-10-21T06:37:40.908Z,1244
2018-10-21T06:38:41.581Z,1320
2018-10-21T06:39:42.255Z,1416
2018-10-21T06:40:42.929Z,1500
2018-10-21T06:41:43.600Z,1564
2018-10-21T06:42:44.313Z,1620
2018-10-21T06:43:44.991Z,1708
2018-10-21T06:44:45.664Z,1788
2018-10-21T06:45:46.409Z,1872
2018-10-21T06:46:47.047Z,1932
2018-10-21T06:47:47.723Z,1980
2018-10-21T06:48:48.392Z,2040
2018-10-21T06:49:49.068Z,2080
2018-10-21T06:50:49.740Z,2068
2018-10-21T06:51:50.413Z,2056
2018-10-21T06:52:51.088Z,2048
2018-10-21T06:53:51.768Z,2032
2018-10-21T06:54:52.476Z,2040
2018-10-21T06:55:53.154Z,2040
2018-10-21T06:56:53.902Z,2036
2018-10-21T06:57:54.497Z,2076
2018-10-21T06:58:55.171Z,2108
2018-10-21T06:59:55.852Z,2116
2018-10-21T07:00:56.516Z,2132
2018-10-21T07:01:57.208Z,2200
2018-10-21T07:02:57.908Z,2284
2018-10-21T07:03:58.618Z,2352
2018-10-21T07:04:59.321Z,2424
2018-10-21T07:05:59.966Z,2480
2018-10-21T07:07:00.640Z,2500
2018-10-21T07:08:01.316Z,2556
2018-10-21T07:09:02.035Z,2588
2018-10-21T07:10:02.736Z,2612
2018-10-21T07:11:03.379Z,2600
2018-10-21T07:12:04.065Z,2600
2018-10-21T07:13:04.772Z,2612
2018-10-21T07:14:05.445Z,2652
2018-10-21T07:15:06.171Z,2672
2018-10-21T07:16:06.820Z,2640
2018-10-21T07:17:07.465Z,2500
2018-10-21T07:18:08.139Z,2388
2018-10-21T07:19:08.812Z,2372
2018-10-21T07:20:09.496Z,2412
2018-10-21T07:21:10.211Z,2512
2018-10-21T07:22:11.027Z,2624
2018-10-21T07:23:11.600Z,2688
2018-10-21T07:24:12.273Z,2740
2018-10-21T07:25:12.948Z,2768
2018-10-21T07:26:13.622Z,2676
2018-10-21T07:27:14.297Z,2516
2018-10-21T07:28:15.135Z,2448
2018-10-21T07:29:15.732Z,2476
2018-10-21T07:30:16.418Z,2532
2018-10-21T07:31:17.086Z,2620
2018-10-21T07:32:17.757Z,2736
2018-10-21T07:33:18.431Z,2788
2018-10-21T07:34:19.161Z,2764
2018-10-21T07:35:19.781Z,2756
2018-10-21T07:36:20.485Z,2788
2018-10-21T07:37:21.133Z,2896
2018-10-21T07:38:21.808Z,3016
2018-10-21T07:39:22.530Z,3088
2018-10-21T07:40:23.206Z,3128
2018-10-21T07:41:23.925Z,3164
2018-10-21T07:42:24.602Z,3188
2018-10-21T07:43:25.279Z,3180
2018-10-21T07:44:26.006Z,3196
2018-10-21T07:45:26.681Z,3140
2018-10-21T07:46:27.354Z,3048
2018-10-21T07:47:28.040Z,2980
2018-10-21T07:48:28.749Z,2932
2018-10-21T07:49:29.468Z,2904
2018-10-21T07:50:30.148Z,2924
2018-10-21T07:51:30.864Z,2964
2018-10-21T07:52:31.540Z,2980
2018-10-21T07:53:32.262Z,2968
2018-10-21T07:54:32.928Z,2900
2018-10-21T07:55:33.623Z,2796
2018-10-21T07:56:34.312Z,2704
2018-10-21T07:57:34.994Z,2668
2018-10-21T07:58:35.666Z,2628
2018-10-21T07:59:36.339Z,2692
2018-10-21T08:00:37.023Z,2792
2018-10-21T08:01:37.769Z,2912
2018-10-21T08:02:38.455Z,2996
2018-10-21T08:03:39.131Z,3032
2018-10-21T08:04:39.811Z,2944
2018-10-21T08:05:40.483Z,2816
2018-10-21T08:06:41.159Z,2792
2018-10-21T08:07:41.836Z,2848
2018-10-21T08:08:42.584Z,2788
2018-10-21T08:09:43.185Z,2616
2018-10-21T08:10:43.862Z,2452
2018-10-21T08:11:44.536Z,2388
2018-10-21T08:12:45.214Z,2444
2018-10-21T08:13:45.888Z,2420
2018-10-21T08:14:46.732Z,2524
2018-10-21T08:15:47.284Z,2824
2018-10-21T08:16:47.961Z,3176
2018-10-21T08:17:48.637Z,3460
2018-10-21T08:18:49.314Z,3556
2018-10-21T08:19:49.990Z,3472
2018-10-21T08:20:50.668Z,3360
2018-10-21T08:21:51.344Z,3164
2018-10-21T08:22:52.052Z,3140
2018-10-21T08:23:52.699Z,2952
2018-10-21T08:24:53.378Z,2632
2018-10-21T08:25:54.050Z,2296
2018-10-21T08:26:54.728Z,3024
2018-10-21T08:27:55.439Z,3124
2018-10-21T08:28:56.080Z,3236
2018-10-21T08:29:56.766Z,3220
2018-10-21T08:30:57.435Z,3120
2018-10-21T08:31:58.110Z,2892
2018-10-21T08:32:58.788Z,2872
2018-10-21T08:33:59.493Z,2852
2018-10-21T08:35:00.140Z,2896
2018-10-21T08:36:00.827Z,3040
2018-10-21T08:37:01.493Z,3144
2018-10-21T08:38:02.169Z,3144
2018-10-21T08:39:02.846Z,3104
2018-10-21T08:40:03.605Z,3064
2018-10-21T08:41:04.199Z,3096
2018-10-21T08:42:04.877Z,3220
2018-10-21T08:43:05.556Z,3388
2018-10-21T08:44:06.232Z,3640
2018-10-21T08:45:06.954Z,4008
2018-10-21T08:46:07.705Z,4444
2018-10-21T08:47:08.346Z,4796
2018-10-21T08:48:09.023Z,4980
2018-10-21T08:49:09.730Z,5096
2018-10-21T08:50:10.378Z,5132
2018-10-21T08:51:11.056Z,5252
2018-10-21T08:52:11.795Z,5436
2018-10-21T08:53:12.411Z,5504
2018-10-21T08:54:13.089Z,5576
2018-10-21T08:55:13.819Z,5580
2018-10-21T08:56:14.484Z,5540
2018-10-21T08:57:15.124Z,5596
2018-10-21T08:58:15.849Z,5584
2018-10-21T08:59:16.479Z,5472
2018-10-21T09:00:17.157Z,5308
2018-10-21T09:01:17.893Z,4784
2018-10-21T09:02:18.512Z,4220
2018-10-21T09:03:19.203Z,3860
2018-10-21T09:04:19.913Z,3984
2018-10-21T09:05:20.591Z,4348
2018-10-21T09:06:21.267Z,5028
2018-10-21T09:07:21.950Z,5024
2018-10-21T09:08:22.626Z,4564
2018-10-21T09:09:23.308Z,4136
2018-10-21T09:10:24.103Z,4380
2018-10-21T09:11:24.707Z,4884
2018-10-21T09:12:25.381Z,5484
2018-10-21T09:13:26.068Z,6040
2018-10-21T09:14:26.782Z,6392
2018-10-21T09:15:27.475Z,6620
2018-10-21T09:16:28.149Z,6756
2018-10-21T09:17:28.854Z,6808
2018-10-21T09:18:29.577Z,6640
2018-10-21T09:19:30.298Z,6396
2018-10-21T09:20:30.974Z,6104
2018-10-21T09:21:31.653Z,5760
2018-10-21T09:22:32.332Z,5236
2018-10-21T09:23:33.061Z,4880
2018-10-21T09:24:33.688Z,4608
2018-10-21T09:25:34.367Z,4460
2018-10-21T09:26:35.045Z,4300
2018-10-21T09:27:35.723Z,4332
2018-10-21T09:28:36.403Z,4340
2018-10-21T09:29:37.082Z,4384
2018-10-21T09:30:37.762Z,4424
2018-10-21T09:31:38.490Z,4472
2018-10-21T09:32:39.161Z,4512
2018-10-21T09:33:39.887Z,4512
2018-10-21T09:34:40.606Z,4588
2018-10-21T09:35:41.284Z,4644
2018-10-21T09:36:41.984Z,4760
2018-10-21T09:37:42.687Z,4856
2018-10-21T09:38:43.363Z,5040
2018-10-21T09:39:44.055Z,5088
2018-10-21T09:40:44.768Z,4836
2018-10-21T09:41:45.447Z,4848
2018-10-21T09:42:46.127Z,3984
2018-10-21T09:43:46.930Z,3860
2018-10-21T09:44:47.521Z,3808
2018-10-21T09:45:48.203Z,4096
2018-10-21T09:46:48.879Z,4564
2018-10-21T09:47:49.571Z,4140
2018-10-21T09:48:50.281Z,4312
2018-10-21T09:49:51.016Z,4140
2018-10-21T09:50:51.680Z,4348
2018-10-21T09:51:52.363Z,4520
2018-10-21T09:52:53.037Z,4584
2018-10-21T09:53:53.714Z,4796
2018-10-21T09:54:54.468Z,4384
2018-10-21T09:55:55.123Z,4360
2018-10-21T09:56:55.816Z,4248
2018-10-21T09:57:56.501Z,4252
2018-10-21T09:58:57.159Z,4320
2018-10-21T09:59:57.838Z,4396
2018-10-21T10:00:58.584Z,4660
2018-10-21T10:01:59.195Z,4564
2018-10-21T10:02:59.918Z,4588
2018-10-21T10:04:00.706Z,4664
2018-10-21T10:05:01.297Z,4552
2018-10-21T10:06:02.203Z,4588
2018-10-21T10:07:02.924Z,4464
2018-10-21T10:08:03.563Z,4296
2018-10-21T10:09:04.266Z,4280
2018-10-21T10:10:05.008Z,4556
2018-10-21T10:11:05.681Z,4668
2018-10-21T10:12:06.361Z,4512
2018-10-21T10:13:07.104Z,4392
2018-10-21T10:14:07.720Z,4448
2018-10-21T10:15:08.398Z,4428
2018-10-21T10:16:09.104Z,4124
2018-10-21T10:17:09.755Z,4136
2018-10-21T10:18:10.433Z,4104
2018-10-21T10:19:11.182Z,4292
2018-10-21T10:20:11.794Z,4744
2018-10-21T10:21:12.518Z,4500
2018-10-21T10:22:13.251Z,4712
2018-10-21T10:23:13.894Z,4104
2018-10-21T10:24:14.560Z,4232
2018-10-21T10:25:15.358Z,4164
2018-10-21T10:26:15.993Z,4080
2018-10-21T10:27:16.718Z,3532
2018-10-21T10:28:17.488Z,3928
2018-10-21T10:29:18.077Z,3940
2018-10-21T10:30:18.802Z,3828
2018-10-21T10:31:19.579Z,3724
2018-10-21T10:32:20.191Z,3540
2018-10-21T10:33:20.885Z,3040
2018-10-21T10:34:21.594Z,3092
2018-10-21T10:35:22.268Z,3032
2018-10-21T10:36:22.953Z,2960
2018-10-21T10:37:23.623Z,3164
2018-10-21T10:38:24.299Z,3192
2018-10-21T10:39:24.978Z,3024
2018-10-21T10:40:25.656Z,2948
2018-10-21T10:41:26.333Z,2932
2018-10-21T10:42:27.013Z,3200
2018-10-21T10:43:27.746Z,2928
2018-10-21T10:44:28.457Z,2960
2018-10-21T10:45:29.137Z,3752
2018-10-21T10:46:29.816Z,3588
2018-10-21T10:47:30.496Z,3428
2018-10-21T10:48:31.172Z,3596
2018-10-21T10:49:31.892Z,3428
2018-10-21T10:50:32.573Z,3404
2018-10-21T10:51:33.294Z,3516
2018-10-21T10:52:33.974Z,3784
2018-10-21T10:53:34.652Z,3420
2018-10-21T10:54:35.332Z,3312
2018-10-21T10:55:36.009Z,3484
2018-10-21T10:56:36.688Z,3588
2018-10-21T10:57:37.413Z,3592
2018-10-21T10:58:38.094Z,3904
2018-10-21T10:59:38.848Z,4364
2018-10-21T11:00:39.462Z,4748
2018-10-21T11:01:40.171Z,4796
2018-10-21T11:02:40.849Z,4828
2018-10-21T11:03:41.531Z,4884
2018-10-21T11:04:42.209Z,5000
2018-10-21T11:05:42.885Z,5080
2018-10-21T11:06:43.563Z,5108
2018-10-21T11:07:44.244Z,5072
2018-10-21T11:08:44.975Z,4996
2018-10-21T11:09:45.645Z,4912
2018-10-21T11:10:46.341Z,4872
2018-10-21T11:11:47.090Z,4696
2018-10-21T11:12:47.773Z,4456
2018-10-21T11:13:48.498Z,4532
2018-10-21T11:14:49.320Z,4324
2018-10-21T11:15:49.898Z,4564
2018-10-21T11:16:50.579Z,4656
2018-10-21T11:17:51.293Z,4084
2018-10-21T11:18:51.982Z,4500
2018-10-21T11:19:52.661Z,4748
2018-10-21T11:20:53.341Z,4728
2018-10-21T11:21:54.048Z,4696
2018-10-21T11:22:54.804Z,4696
2018-10-21T11:23:55.379Z,4756
2018-10-21T11:24:56.135Z,4716
2018-10-21T11:25:57.031Z,4648
2018-10-21T11:26:57.765Z,4640
2018-10-21T11:27:58.751Z,4644
2018-10-21T11:28:59.429Z,4552
2018-10-21T11:30:00.125Z,4684
2018-10-21T11:31:00.832Z,4860
2018-10-21T11:32:01.513Z,3156
2018-10-21T11:33:02.259Z,5000
2018-10-21T11:34:03.034Z,4964
2018-10-21T11:35:03.708Z,5128
2018-10-21T11:36:04.374Z,5072
2018-10-21T11:37:05.147Z,4860
2018-10-21T11:38:05.771Z,4652
2018-10-21T11:39:06.451Z,4528
2018-10-21T11:40:07.216Z,3752
2018-10-21T11:41:07.810Z,3664
2018-10-21T11:42:08.489Z,2808
2018-10-21T11:43:09.215Z,2816
2018-10-21T11:44:09.917Z,3828
2018-10-21T11:45:10.613Z,4352
2018-10-21T11:46:11.377Z,5288
2018-10-21T11:47:11.976Z,5376
2018-10-21T11:48:12.653Z,5364
2018-10-21T11:49:13.436Z,5428
2018-10-21T11:50:14.060Z,5440
2018-10-21T11:51:14.738Z,5556
2018-10-21T11:52:15.657Z,5908
2018-10-21T11:53:16.141Z,5660
2018-10-21T11:54:16.822Z,5080
2018-10-21T11:55:17.580Z,4788
2018-10-21T11:56:18.218Z,4232
2018-10-21T11:57:18.916Z,4244
2018-10-21T11:58:19.626Z,3868
2018-10-21T11:59:20.407Z,3800
2018-10-21T12:00:21.076Z,3768
2018-10-21T12:01:21.758Z,3908
2018-10-21T12:02:22.436Z,4056
2018-10-21T12:03:23.115Z,4304
2018-10-21T12:04:23.802Z,4640
2018-10-21T12:05:24.520Z,4708
2018-10-21T12:06:25.200Z,5016
2018-10-21T12:07:25.880Z,4420
2018-10-21T12:08:26.560Z,4444
2018-10-21T12:09:27.238Z,4564
2018-10-21T12:10:27.918Z,4708
2018-10-21T12:11:28.596Z,4624
2018-10-21T12:12:29.302Z,4628
2018-10-21T12:13:30.011Z,4500
2018-10-21T12:14:30.722Z,4492
2018-10-21T12:15:31.411Z,4792
2018-10-21T12:16:32.082Z,4596
2018-10-21T12:17:32.761Z,4524
2018-10-21T12:18:33.487Z,4520
2018-10-21T12:19:34.167Z,4600
2018-10-21T12:20:34.893Z,4600
2018-10-21T12:21:35.623Z,4576
2018-10-21T12:22:36.355Z,4856
2018-10-21T12:23:37.086Z,4272
2018-10-21T12:24:37.692Z,4108
2018-10-21T12:25:38.466Z,3976
2018-10-21T12:26:39.093Z,3908
2018-10-21T12:27:39.777Z,3796
2018-10-21T12:28:40.495Z,3664
2018-10-21T12:29:41.173Z,3580
2018-10-21T12:30:41.852Z,3564
2018-10-21T12:31:42.533Z,3352
2018-10-21T12:32:43.211Z,3160
2018-10-21T12:33:43.936Z,3128
2018-10-21T12:34:44.656Z,3088
2018-10-21T12:35:45.337Z,3108
2018-10-21T12:36:46.014Z,3124
2018-10-21T12:37:46.692Z,3108
2018-10-21T12:38:47.370Z,3100
2018-10-21T12:39:48.050Z,3064
2018-10-21T12:40:48.726Z,3004
2018-10-21T12:41:49.406Z,3056
2018-10-21T12:42:50.085Z,3052
2018-10-21T12:43:50.762Z,3352
2018-10-21T12:44:51.491Z,3292
2018-10-21T12:45:52.212Z,3556
2018-10-21T12:46:52.918Z,3080
2018-10-21T12:47:53.819Z,3188
2018-10-21T12:48:54.505Z,3184
2018-10-21T12:49:55.184Z,3292
2018-10-21T12:50:55.898Z,3800
2018-10-21T12:51:56.585Z,4828
2018-10-21T12:52:57.268Z,4824
2018-10-21T12:53:57.965Z,4572
2018-10-21T12:54:58.648Z,4876
2018-10-21T12:55:59.339Z,4792
2018-10-21T12:57:00.020Z,4608
2018-10-21T12:58:00.711Z,4748
2018-10-21T12:59:01.378Z,4784
2018-10-21T13:00:02.058Z,4776
2018-10-21T13:01:02.806Z,4744
2018-10-21T13:02:03.544Z,4676
2018-10-21T13:03:04.176Z,4620
2018-10-21T13:04:04.884Z,4536
2018-10-21T13:05:05.544Z,4512
2018-10-21T13:06:06.294Z,4480
2018-10-21T13:07:07.023Z,4432
2018-10-21T13:08:07.694Z,4356
2018-10-21T13:09:08.417Z,4316
2018-10-21T13:10:09.099Z,4328
2018-10-21T13:11:09.788Z,4376
2018-10-21T13:12:10.486Z,4432
2018-10-21T13:13:11.190Z,4460
2018-10-21T13:14:11.860Z,4448
2018-10-21T13:15:12.537Z,4432
2018-10-21T13:16:13.273Z,4424
2018-10-21T13:17:13.897Z,4384
2018-10-21T13:18:14.576Z,4376
2018-10-21T13:19:15.305Z,4368
2018-10-21T13:20:15.934Z,4352
2018-10-21T13:21:16.613Z,4336
2018-10-21T13:22:17.402Z,4328
2018-10-21T13:23:18.010Z,4356
2018-10-21T13:24:18.733Z,4584
2018-10-21T13:25:19.517Z,4600
2018-10-21T13:26:20.143Z,2176
2018-10-21T13:27:20.850Z,2244
2018-10-21T13:28:21.662Z,3704
2018-10-21T13:29:22.209Z,4156
2018-10-21T13:30:22.921Z,4192
2018-10-21T13:31:23.616Z,4220
2018-10-21T13:32:24.289Z,4252
2018-10-21T13:33:24.970Z,4280
2018-10-21T13:34:25.697Z,4292
2018-10-21T13:35:26.326Z,4300
2018-10-21T13:36:27.013Z,4324
2018-10-21T13:37:27.685Z,4348
2018-10-21T13:38:28.370Z,4348
2018-10-21T13:39:29.048Z,4356
2018-10-21T13:40:29.733Z,4324
2018-10-21T13:41:30.435Z,4236
2018-10-21T13:42:31.113Z,4220
2018-10-21T13:43:31.791Z,4260
2018-10-21T13:44:32.470Z,4272
2018-10-21T13:45:33.148Z,4308
2018-10-21T13:46:33.870Z,4352
2018-10-21T13:47:34.549Z,4384
2018-10-21T13:48:35.227Z,4400
2018-10-21T13:49:35.934Z,4416
2018-10-21T13:50:36.629Z,4396
2018-10-21T13:51:37.334Z,4372
2018-10-21T13:52:37.992Z,4324
2018-10-21T13:53:38.700Z,4280
2018-10-21T13:54:39.389Z,4268
2018-10-21T13:55:40.067Z,4272
2018-10-21T13:56:40.744Z,4296
2018-10-21T13:57:41.424Z,4340
2018-10-21T13:58:42.147Z,4352
2018-10-21T13:59:42.825Z,4308
2018-10-21T14:00:43.605Z,4164
2018-10-21T14:01:44.224Z,4116
2018-10-21T14:02:44.899Z,4092